Two Rivers, WI (54241)

11:16 AM CDT on August 30, 2014 (GMT -0500)
44th Street Two Rivers | Change Station
CLOSE
Current Station
Personal Weather Station
Location: Two Rivers, WI
Elevation: 607 ft
Nearby Weather Stations

Elev 607 ft 44.17 °N, 87.59 °W | Updated 0 second ago

Rain
Rain
71.8 °F
Feels Like 70 °F
N
2.7
Wind Variable Wind from SE
Gusts 6.3 mph

Today
High -- | Low -- °F
--% Chance of Precip.
Yesterday
High -- | Low -- °F
Precip. -- in
6:11 AM 7:30 PM
Waxing Crescent, 23% visible
Pressure 29.80 in
Visibility 10.0 miles
Clouds Few 1800 ft
Mostly Cloudy 3200 ft
Overcast 6500 ft
Heat Index 70 °F
Dew Point 67 °F
Humidity 86%
Rainfall 0.04 in
Snow Depth Not available.
UV 2 out of 12
Pollen .20 out of 12
Air Quality Not available.
Flu Activity Not available.
METAR KMTW 301556Z AUTO 21007KT 10SM FEW018 BKN032 OVC065 24/22 A2976 RMK AO2 RAB02E48 SLP091 P0005 T02390217

More Conditions Fewer Conditions

Pressure 29.80 in
Visibility 10.0 miles
Clouds Few 1800 ft
Mostly Cloudy 3200 ft
Overcast 6500 ft
Heat Index 70 °F
Dew Point 67 °F
Humidity 86%
Rainfall 0.04 in
Snow Depth Not available.
UV 2 out of 12
Pollen .20 out of 12
Air Quality Not available.
Flu Activity Not available.
METAR KMTW 301556Z AUTO 21007KT 10SM FEW018 BKN032 OVC065 24/22 A2976 RMK AO2 RAB02E48 SLP091 P0005 T02390217

More Conditions Fewer Conditions

10-Day Weather Forecast

Almanac

Astronomy

Aug. 30, 2014 Rise Set
Actual Time 6:11 AM CDT 7:30 PM CDT
Civil Twilight 5:41 AM CDT 7:59 PM CDT
Nautical Twilight 5:04 AM CDT 8:35 PM CDT
Astronomical Twilight 4:26 AM CDT 9:14 PM CDT
Moon 11:10 AM CDT 9:51 PM CDT
Length of Visible Light 14h 18m
Length of Day
13h 18m
Tomorrow will be 2m 55s shorter.
Waxing Crescent, 23% of the Moon is Illuminated
Today
Waxing Crescent
Sep 2
First Quarter
Sep 8
Full
Sep 15
Last Quarter
Sep 24
New

Today's Extremes

State Highs State Lows

Community

WunderPhotos

Upload Photos

1,748,556 photos uploaded!

WunderBlogs® & News

Nearby

Snow Depth

Station Depth Elevation
No new snow has been reported.

Earthquake Activity

City Distance Mag. Time & Date
No recent earthquake activity has been reported nearby.
Minimum magnitude displayed is 2.5.

Coastal Water Temperatures

Place Temperature
Menominee, MI 71.1 °F

Nearby Weather Stations